createdAt,value
2019-03-29T00:01:42.783Z,66.56
2019-03-29T00:04:15.089Z,67.02
2019-03-29T00:06:57.595Z,67.84
2019-03-29T00:09:52.582Z,68.07
2019-03-29T00:12:28.682Z,68.34
2019-03-29T00:15:05.280Z,68.75
2019-03-29T00:17:43.997Z,69.34
2019-03-29T00:20:24.823Z,68.73
2019-03-29T00:23:15.172Z,68.37
2019-03-29T00:25:47.161Z,68.67
2019-03-29T00:28:23.442Z,68.85
2019-03-29T00:31:06.795Z,68.85
2019-03-29T00:33:43.038Z,69.17
2019-03-29T00:36:22.476Z,69.74
2019-03-29T00:38:55.663Z,69.16
2019-03-29T00:41:32.785Z,68.87
2019-03-29T00:44:12.486Z,68.65
2019-03-29T00:46:48.495Z,68.81
2019-03-29T00:49:31.177Z,69.23
2019-03-29T00:52:15.385Z,69.39
2019-03-29T00:54:49.309Z,69.49
2019-03-29T00:57:30.303Z,69.95
2019-03-29T01:00:12.686Z,69.79
2019-03-29T01:02:47.705Z,69.93
2019-03-29T01:05:22.787Z,69.17
2019-03-29T01:08:08.204Z,68.94
2019-03-29T01:10:41.654Z,68.76
2019-03-29T01:13:22.846Z,68.83
2019-03-29T01:16:01.182Z,69.40
2019-03-29T01:18:43.703Z,69.89
2019-03-29T01:21:20.391Z,69.85
2019-03-29T01:23:56.170Z,69.45
2019-03-29T01:26:31.294Z,69.31
2019-03-29T01:29:08.057Z,68.59
2019-03-29T01:31:42.549Z,68.60
2019-03-29T01:34:17.143Z,69.60
2019-03-29T01:36:51.471Z,69.53
2019-03-29T01:39:25.209Z,69.35
2019-03-29T01:42:02.940Z,69.18
2019-03-29T01:44:29.174Z,69.26
2019-03-29T01:47:18.284Z,69.06
2019-03-29T01:50:00.852Z,69.02
2019-03-29T01:52:45.847Z,70.07
2019-03-29T01:55:17.635Z,70.49
2019-03-29T01:57:54.027Z,70.39
2019-03-29T02:00:40.691Z,70.88
2019-03-29T02:03:10.650Z,72.28
2019-03-29T02:05:40.143Z,72.08
2019-03-29T02:08:34.877Z,72.69
2019-03-29T02:11:11.231Z,72.96
2019-03-29T02:13:40.669Z,73.74
2019-03-29T02:16:16.684Z,73.99
2019-03-29T02:18:53.151Z,74.29
2019-03-29T02:21:38.444Z,72.99
2019-03-29T02:24:08.761Z,73.63
2019-03-29T02:26:43.523Z,73.23
2019-03-29T02:29:15.633Z,73.58
2019-03-29T02:31:52.280Z,74.30
2019-03-29T02:34:21.816Z,74.34
2019-03-29T02:36:53.776Z,73.77
2019-03-29T02:39:26.841Z,74.02
2019-03-29T02:41:56.093Z,74.21
2019-03-29T02:44:25.836Z,74.07
2019-03-29T02:46:56.497Z,74.00
2019-03-29T02:49:29.401Z,73.76
2019-03-29T02:52:01.456Z,74.13
2019-03-29T02:54:33.689Z,73.75
2019-03-29T02:57:03.094Z,74.19
2019-03-29T02:59:32.505Z,74.79
2019-03-29T03:02:02.407Z,74.79
2019-03-29T03:04:32.111Z,74.77
2019-03-29T03:07:01.774Z,74.36
2019-03-29T03:09:31.433Z,73.58
2019-03-29T03:12:01.012Z,73.19
2019-03-29T03:14:30.377Z,73.06
2019-03-29T03:16:59.977Z,72.88
2019-03-29T03:19:29.590Z,72.75
2019-03-29T03:22:00.527Z,72.56
2019-03-29T03:24:30.116Z,72.43
2019-03-29T03:27:01.198Z,72.51
2019-03-29T03:29:30.773Z,72.90
2019-03-29T03:32:00.318Z,72.86
2019-03-29T03:34:29.897Z,72.24
2019-03-29T03:36:59.377Z,72.55
2019-03-29T03:39:32.310Z,72.40
2019-03-29T03:42:13.104Z,72.56
2019-03-29T03:44:42.667Z,72.60
2019-03-29T03:47:12.082Z,72.82
2019-03-29T03:49:41.524Z,73.22
2019-03-29T03:52:11.066Z,73.29
2019-03-29T03:54:41.287Z,73.13
2019-03-29T03:57:21.485Z,73.47
2019-03-29T03:59:54.204Z,73.56
2019-03-29T04:02:23.748Z,73.46
2019-03-29T04:05:05.342Z,73.92
2019-03-29T04:07:39.144Z,73.63
2019-03-29T04:10:19.323Z,74.29
2019-03-29T04:12:50.554Z,74.11
2019-03-29T04:15:20.029Z,74.08
2019-03-29T04:18:01.431Z,74.26
2019-03-29T04:20:34.429Z,74.68
2019-03-29T04:23:07.189Z,74.04
2019-03-29T04:25:40.750Z,74.49
2019-03-29T04:28:10.180Z,74.65
2019-03-29T04:30:46.201Z,74.46
2019-03-29T04:33:15.651Z,74.73
2019-03-29T04:35:45.133Z,74.46
2019-03-29T04:38:23.999Z,74.08
2019-03-29T04:40:54.090Z,73.63
2019-03-29T04:43:26.696Z,73.56
2019-03-29T04:45:58.441Z,73.22
2019-03-29T04:48:27.923Z,73.59
2019-03-29T04:51:05.110Z,73.25
2019-03-29T04:53:41.470Z,73.44
2019-03-29T04:56:14.925Z,73.63
2019-03-29T04:58:44.138Z,74.34
2019-03-29T05:01:32.715Z,74.85
2019-03-29T05:04:11.511Z,75.37
2019-03-29T05:06:38.184Z,76.10
2019-03-29T05:09:15.372Z,76.99
2019-03-29T05:11:52.367Z,75.95
2019-03-29T05:14:21.729Z,75.28
2019-03-29T05:16:51.208Z,74.55
2019-03-29T05:19:20.560Z,74.15
2019-03-29T05:21:49.950Z,74.23
2019-03-29T05:24:19.419Z,74.68
2019-03-29T05:26:48.913Z,74.72
2019-03-29T05:29:19.043Z,74.70
2019-03-29T05:31:48.443Z,74.69
2019-03-29T05:34:18.016Z,74.74
2019-03-29T05:36:48.614Z,74.73
2019-03-29T05:39:27.328Z,74.46
2019-03-29T05:41:56.796Z,73.82
2019-03-29T05:44:31.703Z,73.30
2019-03-29T05:47:07.648Z,72.96
2019-03-29T05:49:59.086Z,73.01
2019-03-29T05:52:32.138Z,72.95
2019-03-29T05:55:01.869Z,71.96
2019-03-29T05:57:31.411Z,71.06
2019-03-29T06:00:00.941Z,70.43
2019-03-29T06:02:30.468Z,70.46
2019-03-29T06:05:12.225Z,70.31
2019-03-29T06:07:50.386Z,70.54
2019-03-29T06:10:19.619Z,70.16
2019-03-29T06:12:51.807Z,70.06
2019-03-29T06:15:22.489Z,69.92
2019-03-29T06:17:51.927Z,69.96
2019-03-29T06:20:21.543Z,69.77
2019-03-29T06:22:51.087Z,69.96
2019-03-29T06:25:20.554Z,68.30
2019-03-29T06:28:00.250Z,67.65
2019-03-29T06:30:37.851Z,67.16
2019-03-29T06:33:17.258Z,67.14
2019-03-29T06:35:58.953Z,67.13
2019-03-29T06:38:30.771Z,65.21
2019-03-29T06:41:03.780Z,63.75
2019-03-29T06:43:33.858Z,63.06
2019-03-29T06:46:08.311Z,62.98
2019-03-29T06:48:38.693Z,63.19
2019-03-29T06:51:08.441Z,63.10
2019-03-29T06:53:39.670Z,61.64
2019-03-29T06:56:09.457Z,60.80
2019-03-29T06:58:42.304Z,60.38
2019-03-29T07:01:14.276Z,60.75
2019-03-29T07:03:45.513Z,60.74
2019-03-29T07:06:15.352Z,61.27
2019-03-29T07:08:46.730Z,61.01
2019-03-29T07:11:19.912Z,61.53
2019-03-29T07:13:57.510Z,61.42
2019-03-29T07:16:22.343Z,61.49
2019-03-29T07:18:55.152Z,61.87
2019-03-29T07:21:44.301Z,61.91
2019-03-29T07:24:16.271Z,61.67
2019-03-29T07:26:48.583Z,61.61
2019-03-29T07:29:18.278Z,61.47
2019-03-29T07:31:57.837Z,61.01
2019-03-29T07:34:37.939Z,61.34
2019-03-29T07:37:13.772Z,60.57
2019-03-29T07:39:45.565Z,60.82
2019-03-29T07:42:17.939Z,60.67
2019-03-29T07:44:48.783Z,60.73
2019-03-29T07:47:35.920Z,60.69
2019-03-29T07:50:19.314Z,60.66
2019-03-29T07:52:51.162Z,60.54
2019-03-29T07:55:28.773Z,60.03
2019-03-29T07:57:59.041Z,60.04
2019-03-29T08:00:38.037Z,59.38
2019-03-29T08:03:11.236Z,60.06
2019-03-29T08:05:42.728Z,59.97
2019-03-29T08:08:23.792Z,59.71
2019-03-29T08:10:52.066Z,59.67
2019-03-29T08:13:27.258Z,59.70
2019-03-29T08:15:57.206Z,59.30
2019-03-29T08:18:37.868Z,59.41
2019-03-29T08:21:15.444Z,58.35
2019-03-29T08:23:46.473Z,58.35
2019-03-29T08:26:20.192Z,58.37
2019-03-29T08:28:53.077Z,58.18
2019-03-29T08:31:25.822Z,57.70
2019-03-29T08:33:59.386Z,57.53
2019-03-29T08:36:28.685Z,56.95
2019-03-29T08:38:58.392Z,56.94
2019-03-29T08:41:59.487Z,56.26
2019-03-29T08:44:40.288Z,55.98
2019-03-29T08:47:19.240Z,55.59
2019-03-29T08:49:49.809Z,55.31
2019-03-29T08:52:29.920Z,55.19
2019-03-29T08:55:02.811Z,55.28
2019-03-29T08:57:32.244Z,54.28
2019-03-29T09:00:01.807Z,54.19
2019-03-29T09:02:31.864Z,52.95
2019-03-29T09:05:01.382Z,52.99
2019-03-29T09:07:44.013Z,52.80
2019-03-29T09:10:03.459Z,52.34
2019-03-29T09:12:32.887Z,51.91
2019-03-29T09:15:04.067Z,51.63
2019-03-29T09:17:33.241Z,51.75
2019-03-29T09:20:02.729Z,50.94
2019-03-29T09:22:32.166Z,50.92
2019-03-29T09:25:01.556Z,51.03
2019-03-29T09:27:32.142Z,50.27
2019-03-29T09:30:04.959Z,49.92
2019-03-29T09:32:33.023Z,49.84
2019-03-29T09:35:02.537Z,49.52
2019-03-29T09:37:32.018Z,49.25
2019-03-29T09:40:01.522Z,49.25
2019-03-29T09:42:30.972Z,49.34
2019-03-29T09:45:00.432Z,50.04
2019-03-29T09:47:36.998Z,50.29
2019-03-29T09:50:01.137Z,50.18
2019-03-29T09:52:30.623Z,49.10
2019-03-29T09:55:00.157Z,45.94
2019-03-29T09:57:37.366Z,44.20
2019-03-29T10:00:00.961Z,44.44
2019-03-29T10:02:30.446Z,43.44
2019-03-29T10:04:59.776Z,43.52
2019-03-29T10:07:29.340Z,43.35
2019-03-29T10:09:58.860Z,43.23
2019-03-29T10:12:42.335Z,42.88
2019-03-29T10:14:59.548Z,42.79
2019-03-29T10:17:29.613Z,42.17
2019-03-29T10:19:59.176Z,42.92
2019-03-29T10:22:28.909Z,43.58
2019-03-29T10:25:01.715Z,43.13
2019-03-29T10:27:29.527Z,43.18
2019-03-29T10:29:59.033Z,43.54
2019-03-29T10:32:28.505Z,42.89
2019-03-29T10:34:57.853Z,42.94
2019-03-29T10:37:27.322Z,42.89
2019-03-29T10:39:56.850Z,42.78
2019-03-29T10:42:26.258Z,42.61
2019-03-29T10:44:55.761Z,42.53
2019-03-29T10:47:42.052Z,42.26
2019-03-29T10:49:56.382Z,41.85
2019-03-29T10:52:25.782Z,42.10
2019-03-29T10:54:55.224Z,41.77
2019-03-29T10:57:24.606Z,41.87
2019-03-29T10:59:54.017Z,41.60
2019-03-29T11:02:23.563Z,40.68
2019-03-29T11:04:53.062Z,40.67
2019-03-29T11:07:22.611Z,40.52
2019-03-29T11:09:52.233Z,40.48
2019-03-29T11:12:21.574Z,40.74
2019-03-29T11:14:51.039Z,40.33
2019-03-29T11:17:22.871Z,39.23
2019-03-29T11:19:52.422Z,39.02
2019-03-29T11:22:22.002Z,38.28
2019-03-29T11:24:51.488Z,37.41
2019-03-29T11:27:22.626Z,37.51
2019-03-29T11:29:52.059Z,38.17
2019-03-29T11:32:21.506Z,38.21
2019-03-29T11:34:50.946Z,38.07
2019-03-29T11:37:20.390Z,38.12
2019-03-29T11:39:49.860Z,38.73
2019-03-29T11:42:19.424Z,38.25
2019-03-29T11:44:49.023Z,38.30
2019-03-29T11:47:18.601Z,38.59
2019-03-29T11:49:47.928Z,40.44
2019-03-29T11:52:17.423Z,39.97
2019-03-29T11:54:46.958Z,39.57
2019-03-29T11:57:16.369Z,39.13
2019-03-29T11:59:45.760Z,39.12
2019-03-29T12:02:15.118Z,39.54
2019-03-29T12:04:45.091Z,39.98
2019-03-29T12:07:14.588Z,39.57
2019-03-29T12:09:44.008Z,38.80
2019-03-29T12:12:13.502Z,38.50
2019-03-29T12:14:42.890Z,38.34
2019-03-29T12:17:12.461Z,38.74
2019-03-29T12:19:41.890Z,38.83
2019-03-29T12:22:11.474Z,39.16
2019-03-29T12:24:40.993Z,39.41
2019-03-29T12:27:10.535Z,39.05
2019-03-29T12:29:40.018Z,38.98
2019-03-29T12:32:09.550Z,39.31
2019-03-29T12:34:39.011Z,38.54
2019-03-29T12:37:13.840Z,38.39
2019-03-29T12:39:43.259Z,38.54
2019-03-29T12:42:12.823Z,38.28
2019-03-29T12:44:42.258Z,38.41
2019-03-29T12:47:11.809Z,37.94
2019-03-29T12:49:41.356Z,38.12
2019-03-29T12:52:10.953Z,38.59
2019-03-29T12:54:40.448Z,39.07
2019-03-29T12:57:09.918Z,38.48
2019-03-29T12:59:39.433Z,38.38
2019-03-29T13:02:09.346Z,38.28
2019-03-29T13:04:38.768Z,38.11
2019-03-29T13:07:08.473Z,38.19
2019-03-29T13:09:39.801Z,38.05
2019-03-29T13:12:09.211Z,37.87
2019-03-29T13:14:38.619Z,37.34
2019-03-29T13:17:08.035Z,37.15
2019-03-29T13:19:37.606Z,37.36
2019-03-29T13:22:07.910Z,37.06
2019-03-29T13:24:37.501Z,36.96
2019-03-29T13:27:07.079Z,37.21
2019-03-29T13:29:36.524Z,36.23
2019-03-29T13:32:06.105Z,36.18
2019-03-29T13:34:35.583Z,36.30
2019-03-29T13:37:05.161Z,35.56
2019-03-29T13:39:34.615Z,34.54
2019-03-29T13:42:04.352Z,34.11
2019-03-29T13:44:33.763Z,33.43
2019-03-29T13:47:03.227Z,32.91
2019-03-29T13:49:32.712Z,32.10
2019-03-29T13:52:02.038Z,31.22
2019-03-29T13:54:31.605Z,30.20
2019-03-29T13:57:01.218Z,29.28
2019-03-29T13:59:31.882Z,28.95
2019-03-29T14:02:01.580Z,27.51
2019-03-29T14:04:30.988Z,28.67
2019-03-29T14:07:00.671Z,28.54
2019-03-29T14:09:30.185Z,27.78
2019-03-29T14:11:59.722Z,27.61
2019-03-29T14:14:38.115Z,28.09
2019-03-29T14:17:00.629Z,28.34
2019-03-29T14:19:30.174Z,27.30
2019-03-29T14:21:59.720Z,28.84
2019-03-29T14:24:29.262Z,28.52
2019-03-29T14:26:58.743Z,27.55
2019-03-29T14:29:28.183Z,26.54
2019-03-29T14:31:57.601Z,26.99
2019-03-29T14:34:27.108Z,27.76
2019-03-29T14:36:59.249Z,27.05
2019-03-29T14:39:27.644Z,27.31
2019-03-29T14:41:57.150Z,26.43
2019-03-29T14:44:26.604Z,26.38
2019-03-29T14:46:56.111Z,25.93
2019-03-29T14:49:26.563Z,25.69
2019-03-29T14:51:56.378Z,25.20
2019-03-29T14:54:25.893Z,25.03
2019-03-29T14:56:55.280Z,25.63
2019-03-29T14:59:24.653Z,25.16
2019-03-29T15:01:54.222Z,25.00
2019-03-29T15:04:23.710Z,24.26
2019-03-29T15:06:53.328Z,24.19
2019-03-29T15:09:23.146Z,23.85
2019-03-29T15:11:52.615Z,24.19
2019-03-29T15:14:23.245Z,24.19
2019-03-29T15:16:52.993Z,24.04
2019-03-29T15:19:22.373Z,24.11
2019-03-29T15:21:51.743Z,23.98
2019-03-29T15:24:21.305Z,24.48
2019-03-29T15:26:50.865Z,24.51
2019-03-29T15:29:20.330Z,24.78
2019-03-29T15:31:49.700Z,25.51
2019-03-29T15:34:19.111Z,25.98
2019-03-29T15:36:48.448Z,25.20
2019-03-29T15:39:17.993Z,25.44
2019-03-29T15:41:47.358Z,24.75
2019-03-29T15:44:16.873Z,25.03
2019-03-29T15:46:46.232Z,23.77
2019-03-29T15:49:15.820Z,24.47
2019-03-29T15:51:45.124Z,24.65
2019-03-29T15:54:14.667Z,24.99
2019-03-29T15:56:44.177Z,24.43
2019-03-29T15:59:13.655Z,24.05
2019-03-29T16:01:43.037Z,24.25
2019-03-29T16:04:12.558Z,24.23
2019-03-29T16:06:42.081Z,23.55
2019-03-29T16:09:11.618Z,23.23
2019-03-29T16:11:41.027Z,24.11
2019-03-29T16:14:10.587Z,23.76
2019-03-29T16:16:40.092Z,23.99
2019-03-29T16:19:09.719Z,23.26
2019-03-29T16:21:39.277Z,24.46
2019-03-29T16:24:08.736Z,24.74
2019-03-29T16:26:38.095Z,24.66
2019-03-29T16:29:07.756Z,26.01
2019-03-29T16:31:37.192Z,23.85
2019-03-29T16:34:06.733Z,24.04
2019-03-29T16:36:36.201Z,25.00
2019-03-29T16:39:07.915Z,24.76
2019-03-29T16:41:37.884Z,24.68
2019-03-29T16:44:07.386Z,24.63
2019-03-29T16:46:36.946Z,24.54
2019-03-29T16:49:06.462Z,25.10
2019-03-29T16:51:35.948Z,25.66
2019-03-29T16:54:05.957Z,25.61
2019-03-29T16:56:35.642Z,25.89
2019-03-29T16:59:05.173Z,26.35
2019-03-29T17:01:34.668Z,26.09
2019-03-29T17:06:39.350Z,26.47
2019-03-29T17:09:09.104Z,26.74
2019-03-29T17:11:38.513Z,26.82
2019-03-29T17:14:08.079Z,27.11
2019-03-29T17:16:37.519Z,27.48
2019-03-29T17:19:07.071Z,27.63
2019-03-29T17:21:36.568Z,28.29
2019-03-29T17:24:06.158Z,27.92
2019-03-29T17:26:35.547Z,28.76
2019-03-29T17:29:05.060Z,30.37
2019-03-29T17:31:34.498Z,29.51
2019-03-29T17:34:03.915Z,29.64
2019-03-29T17:36:33.501Z,30.49
2019-03-29T17:39:02.955Z,31.15
2019-03-29T17:41:32.261Z,33.69
2019-03-29T17:44:01.600Z,32.18
2019-03-29T17:46:31.215Z,33.79
2019-03-29T17:49:00.944Z,33.94
2019-03-29T17:51:30.362Z,34.21
2019-03-29T17:53:59.924Z,34.93
2019-03-29T17:56:29.488Z,35.58
2019-03-29T17:58:58.977Z,35.96
2019-03-29T18:01:28.393Z,36.33
2019-03-29T18:03:57.874Z,37.05
2019-03-29T18:06:27.255Z,36.93
2019-03-29T18:09:01.136Z,37.19
2019-03-29T18:11:30.434Z,37.61
2019-03-29T18:13:59.985Z,37.74
2019-03-29T18:16:30.950Z,38.21
2019-03-29T18:19:00.801Z,38.40
2019-03-29T18:21:30.207Z,38.79
2019-03-29T18:23:59.711Z,39.49
2019-03-29T18:26:29.076Z,39.57
2019-03-29T18:28:58.629Z,39.72
2019-03-29T18:31:28.286Z,40.53
2019-03-29T18:33:57.863Z,40.87
2019-03-29T18:36:27.362Z,40.53
2019-03-29T18:38:57.148Z,40.61
2019-03-29T18:41:26.793Z,41.27
2019-03-29T18:43:56.431Z,41.47
2019-03-29T18:46:25.959Z,41.34
2019-03-29T18:48:55.614Z,41.81
2019-03-29T18:51:25.336Z,41.96
2019-03-29T18:53:54.785Z,42.20
2019-03-29T18:56:24.770Z,42.50
2019-03-29T18:58:54.344Z,42.53
2019-03-29T19:01:23.873Z,42.71
2019-03-29T19:03:53.424Z,42.86
2019-03-29T19:06:22.958Z,43.00
2019-03-29T19:08:52.432Z,43.20
2019-03-29T19:11:21.920Z,43.64
2019-03-29T19:13:51.375Z,44.63
2019-03-29T19:16:20.790Z,44.49
2019-03-29T19:18:50.364Z,44.70
2019-03-29T19:21:19.835Z,45.08
2019-03-29T19:23:49.368Z,45.53
2019-03-29T19:26:18.919Z,46.51
2019-03-29T19:28:48.329Z,46.30
2019-03-29T19:31:17.801Z,45.90
2019-03-29T19:33:47.213Z,46.31
2019-03-29T19:36:16.690Z,46.66
2019-03-29T19:38:46.744Z,47.12
2019-03-29T19:41:16.294Z,46.84
2019-03-29T19:43:45.802Z,48.62
2019-03-29T19:46:15.226Z,48.84
2019-03-29T19:48:44.655Z,49.28
2019-03-29T19:51:14.970Z,49.43
2019-03-29T19:53:44.386Z,49.76
2019-03-29T19:56:13.931Z,50.22
2019-03-29T19:58:43.446Z,51.21
2019-03-29T20:01:13.088Z,51.76
2019-03-29T20:03:42.522Z,51.86
2019-03-29T20:06:12.115Z,50.84
2019-03-29T20:08:41.586Z,51.06
2019-03-29T20:11:11.228Z,52.02
2019-03-29T20:13:40.645Z,51.85
2019-03-29T20:16:10.183Z,53.32
2019-03-29T20:18:39.622Z,52.48
2019-03-29T20:21:09.195Z,53.00
2019-03-29T20:23:38.560Z,53.27
2019-03-29T20:26:08.543Z,53.66
2019-03-29T20:28:38.096Z,53.22
2019-03-29T20:31:07.586Z,53.11
2019-03-29T20:33:37.109Z,53.72
2019-03-29T20:36:06.759Z,54.04
2019-03-29T20:38:36.289Z,55.28
2019-03-29T20:41:05.884Z,55.31
2019-03-29T20:43:35.424Z,56.07
2019-03-29T20:46:04.981Z,55.60
2019-03-29T20:48:34.573Z,55.92
2019-03-29T20:51:04.039Z,55.75
2019-03-29T20:53:33.620Z,56.23
2019-03-29T20:56:06.367Z,56.02
2019-03-29T20:58:34.312Z,56.76
2019-03-29T21:01:03.857Z,56.92
2019-03-29T21:03:33.243Z,57.24
2019-03-29T21:06:02.768Z,56.36
2019-03-29T21:08:32.165Z,57.27
2019-03-29T21:11:01.656Z,57.48
2019-03-29T21:13:31.154Z,58.26
2019-03-29T21:16:00.551Z,58.27
2019-03-29T21:18:29.951Z,58.65
2019-03-29T21:20:59.485Z,58.51
2019-03-29T21:23:29.022Z,58.76
2019-03-29T21:25:58.558Z,59.28
2019-03-29T21:28:27.862Z,59.60
2019-03-29T21:30:57.416Z,59.96
2019-03-29T21:33:26.997Z,59.83
2019-03-29T21:35:56.571Z,59.96
2019-03-29T21:38:26.110Z,60.57
2019-03-29T21:40:55.534Z,60.77
2019-03-29T21:43:25.045Z,60.82
2019-03-29T21:45:54.566Z,60.86
2019-03-29T21:48:29.025Z,61.40
2019-03-29T21:50:55.857Z,61.97
2019-03-29T21:53:25.355Z,61.85
2019-03-29T21:55:54.843Z,61.70
2019-03-29T21:58:24.268Z,62.19
2019-03-29T22:00:54.171Z,61.77
2019-03-29T22:03:23.704Z,62.09
2019-03-29T22:05:53.296Z,62.50
2019-03-29T22:08:22.625Z,62.21
2019-03-29T22:10:52.241Z,62.89
2019-03-29T22:13:21.621Z,63.04
2019-03-29T22:15:51.384Z,63.34
2019-03-29T22:18:20.944Z,63.48
2019-03-29T22:20:50.396Z,63.15
2019-03-29T22:23:19.893Z,61.97
2019-03-29T22:25:49.312Z,61.39
2019-03-29T22:28:18.801Z,62.52
2019-03-29T22:30:48.291Z,62.78
2019-03-29T22:33:17.865Z,63.29
2019-03-29T22:35:47.289Z,63.60
2019-03-29T22:38:16.704Z,63.47
2019-03-29T22:40:46.158Z,63.23
2019-03-29T22:43:16.148Z,62.61
2019-03-29T22:45:45.695Z,62.45
2019-03-29T22:48:15.139Z,63.31
2019-03-29T22:50:44.658Z,62.90
2019-03-29T22:53:14.103Z,63.81
2019-03-29T22:55:43.484Z,64.99
2019-03-29T22:58:12.999Z,64.91
2019-03-29T23:00:46.168Z,63.86
2019-03-29T23:03:16.107Z,64.61
2019-03-29T23:05:46.005Z,65.63
2019-03-29T23:08:15.626Z,66.20
2019-03-29T23:10:45.024Z,65.49
2019-03-29T23:13:14.879Z,65.71
2019-03-29T23:15:45.847Z,66.54
2019-03-29T23:18:15.281Z,66.64
2019-03-29T23:20:44.663Z,66.99
2019-03-29T23:23:14.232Z,67.05
2019-03-29T23:25:43.655Z,67.35
2019-03-29T23:28:13.177Z,67.73
2019-03-29T23:30:42.715Z,68.59
2019-03-29T23:33:12.365Z,67.82
2019-03-29T23:35:41.793Z,68.03
2019-03-29T23:38:11.224Z,67.84
2019-03-29T23:40:40.677Z,67.39
2019-03-29T23:43:10.147Z,67.85
2019-03-29T23:45:39.549Z,68.13
2019-03-29T23:48:08.878Z,67.61
2019-03-29T23:50:38.519Z,67.96
2019-03-29T23:53:08.124Z,67.81
2019-03-29T23:55:37.638Z,67.71
2019-03-29T23:58:07.063Z,67.89
